CYPC

Paulatuk (Nora Aliqatchialuk Ruben) Airport

Paulatuk, Northwest Territories, Canada
METAR CYPC 182300Z 34012KT 5SM -FZDZ -SN OVC014 M05/M06 A3030 RMK ST8 -4.5/-6.0/0.4/LAST STFD OBS/NEXT 191300Z SLP262
Observed Flight Rules
Sep-18 @ 23:00 UTC (12 hours ago) Marginal Visual Flight Rules
Wind Visibility Clouds Conditions
340° at 12 knots 5 miles
  • Overcast at 1,400' AGL
  • Light Freezing
  • Light Drizzle
  • Light Snow
Temperatures Readings
Current -5°C / 23°F
Dewpoint -6°C / 21°F
Humidity 93%
Altimeter 30.3" Hg
Pressure 1026.2 hPa
Elevation 6
METAR CYPC 182300Z 34012KT 5SM -FZDZ -SN OVC014 M05/M06 A3030 RMK ST8 -4.5/-6.0/0.4/LAST STFD OBS/NEXT 191300Z SLP262
Observed Flight Rules
Sep-18 @ 23:00 UTC
(12 hours ago)
MVFR
Wind Visibility
340° at 12 knots 5 miles
Clouds
  • Overcast at 1,400' AGL
Conditions
  • Light Freezing
  • Light Drizzle
  • Light Snow
Temperature Dewpoint
-5°C / 23°F -6°C / 21°F
Humidity Altimeter Pressure
93% 30.3" Hg 1026.2 hPa